Time;durP1;ratioP1;P1;durP2;ratioP2;P2;SDS_P1;SDS_P2;PMS_P1;PMS_P2;Temp;Humidity;BMP_temperature;BMP_pressure;BME280_temperature;BME280_humidity;BME280_pressure;Samples;Min_cycle;Max_cycle;Signal;HPM_P1;HPM_P2
2022/01/29 00:01:40;;;;;;;7.03;4.47;;;5.80;99.90;;;;;;5032678;28;20174;-77
2022/01/29 00:04:06;;;;;;;8.97;4.40;;;5.80;99.90;;;;;;5032622;28;20213;-78
2022/01/29 00:06:33;;;;;;;4.87;3.63;;;6.00;99.90;;;;;;5032473;28;20189;-79
2022/01/29 00:08:59;;;;;;;7.37;4.10;;;5.90;99.90;;;;;;5016052;28;20182;-77
2022/01/29 00:11:30;;;;;;;8.23;4.77;;;6.10;99.90;;;;;;5048882;28;20181;-80
2022/01/29 00:13:56;;;;;;;6.57;4.37;;;5.90;99.90;;;;;;4984510;28;20182;-77
2022/01/29 00:16:22;;;;;;;6.50;4.47;;;6.00;99.90;;;;;;5048578;28;20244;-78
2022/01/29 00:18:49;;;;;;;5.63;4.00;;;6.20;99.90;;;;;;5032993;28;20553;-78
2022/01/29 00:21:15;;;;;;;6.20;4.37;;;6.30;99.90;;;;;;5033737;28;20174;-80
2022/01/29 00:23:41;;;;;;;9.60;4.97;;;6.00;99.90;;;;;;5031857;28;20573;-78
2022/01/29 00:26:06;;;;;;;7.47;4.00;;;5.90;99.90;;;;;;5033538;28;20169;-76
2022/01/29 00:28:34;;;;;;;6.40;4.17;;;5.90;99.90;;;;;;5015501;28;20178;-79
2022/01/29 00:31:03;;;;;;;11.20;5.13;;;6.00;99.90;;;;;;5032464;28;20178;-82
2022/01/29 00:33:29;;;;;;;6.77;4.27;;;6.00;99.90;;;;;;5015835;28;20247;-76
2022/01/29 00:35:54;;;;;;;9.23;4.93;;;6.20;99.90;;;;;;4998931;28;20181;-77
2022/01/29 00:38:20;;;;;;;6.53;4.37;;;6.20;99.90;;;;;;5048765;28;20174;-77
2022/01/29 00:40:46;;;;;;;9.60;4.53;;;6.20;99.90;;;;;;5031263;28;20248;-77
2022/01/29 00:43:13;;;;;;;8.13;4.40;;;6.00;99.90;;;;;;4998810;28;20204;-78
2022/01/29 00:45:38;;;;;;;7.70;4.40;;;6.10;99.90;;;;;;5031370;28;20182;-80
2022/01/29 00:48:05;;;;;;;7.70;4.50;;;6.00;99.90;;;;;;5015375;28;20178;-79
2022/01/29 00:50:30;;;;;;;8.07;4.30;;;6.10;99.90;;;;;;5031521;28;20181;-76
2022/01/29 00:52:56;;;;;;;6.90;4.53;;;5.90;99.90;;;;;;5024555;28;20186;-78
2022/01/29 00:55:22;;;;;;;5.63;4.20;;;6.00;99.90;;;;;;5023600;28;20196;-76
2022/01/29 00:57:48;;;;;;;5.83;3.77;;;6.00;99.90;;;;;;5024491;28;20170;-79
2022/01/29 01:00:15;;;;;;;6.97;3.93;;;6.10;99.90;;;;;;4990331;28;20182;-78
2022/01/29 01:02:41;;;;;;;5.60;3.80;;;6.10;99.90;;;;;;5021290;28;20247;-80
2022/01/29 01:05:08;;;;;;;7.17;4.23;;;6.30;99.90;;;;;;4994147;28;20647;-79
2022/01/29 01:07:34;;;;;;;7.60;4.10;;;6.30;99.90;;;;;;4995500;28;20657;-75
2022/01/29 01:10:00;;;;;;;6.07;3.90;;;6.20;99.90;;;;;;4998492;28;20189;-78
2022/01/29 01:12:26;;;;;;;4.70;3.47;;;6.20;99.90;;;;;;4982352;28;20178;-76
2022/01/29 01:14:52;;;;;;;5.50;3.50;;;6.20;99.90;;;;;;5030960;28;20259;-76
2022/01/29 01:17:18;;;;;;;5.80;3.60;;;6.20;99.90;;;;;;5047687;28;20636;-78
2022/01/29 01:19:45;;;;;;;6.20;4.10;;;6.20;99.90;;;;;;5032218;28;20259;-77
2022/01/29 01:22:11;;;;;;;6.73;3.60;;;6.10;99.90;;;;;;5030360;28;20181;-79
2022/01/29 01:24:36;;;;;;;7.23;4.20;;;6.20;99.90;;;;;;5014059;28;20216;-79
2022/01/29 01:27:03;;;;;;;7.53;3.90;;;6.20;99.90;;;;;;5031078;28;20533;-80
2022/01/29 01:29:30;;;;;;;5.43;3.53;;;6.20;99.90;;;;;;5047397;28;20652;-78
2022/01/29 01:31:55;;;;;;;5.03;3.10;;;6.20;99.90;;;;;;4983568;28;20498;-79
2022/01/29 01:34:24;;;;;;;5.90;3.63;;;6.20;99.90;;;;;;5032472;28;20181;-79
2022/01/29 01:36:55;;;;;;;4.80;3.63;;;6.10;99.90;;;;;;5014424;28;20184;-79
2022/01/29 01:39:25;;;;;;;5.60;3.40;;;6.00;99.90;;;;;;5030821;28;20690;-76
2022/01/29 01:42:09;;;;;;;5.70;3.07;;;6.00;99.90;;;;;;5030493;28;20170;-78
2022/01/29 01:44:48;;;;;;;4.83;3.30;;;6.00;99.90;;;;;;5046979;28;20612;-77
2022/01/29 01:47:15;;;;;;;6.70;3.80;;;6.10;99.90;;;;;;5030301;28;20196;-79
2022/01/29 01:49:41;;;;;;;5.17;3.07;;;6.30;99.90;;;;;;5047054;28;20174;-77
2022/01/29 01:52:10;;;;;;;7.40;3.20;;;6.20;99.90;;;;;;5046895;28;20219;-78
2022/01/29 01:54:37;;;;;;;5.53;3.13;;;6.30;99.90;;;;;;5014608;28;20205;-77
2022/01/29 01:57:04;;;;;;;5.67;3.70;;;6.30;99.90;;;;;;5030280;28;20185;-78
2022/01/29 01:59:31;;;;;;;8.50;3.60;;;6.30;99.90;;;;;;5046118;28;20197;-76
2022/01/29 02:01:57;;;;;;;6.90;4.00;;;6.30;99.90;;;;;;5022908;28;20190;-78
2022/01/29 02:04:23;;;;;;;7.90;3.00;;;6.40;99.90;;;;;;5020862;28;20596;-79
2022/01/29 02:06:53;;;;;;;5.87;3.20;;;6.30;99.90;;;;;;5047191;28;20244;-77
2022/01/29 02:09:22;;;;;;;6.53;3.80;;;6.20;99.90;;;;;;5032254;28;20170;-77
2022/01/29 02:11:53;;;;;;;5.90;3.13;;;6.20;99.90;;;;;;5013947;28;20649;-77
2022/01/29 02:14:35;;;;;;;6.23;3.47;;;6.20;99.90;;;;;;5031403;28;20227;-77
2022/01/29 02:17:02;;;;;;;8.40;3.77;;;6.20;99.90;;;;;;5013849;28;20253;-77
2022/01/29 02:19:28;;;;;;;5.43;3.07;;;6.30;99.90;;;;;;5031536;28;20174;-80
2022/01/29 02:21:55;;;;;;;6.57;3.93;;;6.20;99.90;;;;;;5046193;28;20277;-79
2022/01/29 02:24:22;;;;;;;6.60;3.80;;;6.20;99.90;;;;;;5013312;28;20206;-76
2022/01/29 02:26:48;;;;;;;6.10;3.90;;;6.10;99.90;;;;;;5030132;28;20261;-77
2022/01/29 02:29:14;;;;;;;6.87;4.43;;;6.00;99.90;;;;;;5031345;28;20253;-77
2022/01/29 02:31:51;;;;;;;6.47;4.30;;;6.00;99.90;;;;;;5013811;28;20251;-80
2022/01/29 02:34:18;;;;;;;8.00;4.47;;;6.00;99.90;;;;;;5031502;28;20169;-77
2022/01/29 02:36:44;;;;;;;9.20;4.50;;;6.00;99.90;;;;;;5029861;28;20476;-82
2022/01/29 02:39:12;;;;;;;7.73;4.43;;;5.90;99.90;;;;;;5031796;28;20184;-78
2022/01/29 02:41:42;;;;;;;5.60;3.90;;;6.00;99.90;;;;;;5031569;28;20641;-79
2022/01/29 02:44:09;;;;;;;5.90;3.90;;;6.00;99.90;;;;;;5031087;28;20194;-80
2022/01/29 02:46:48;;;;;;;7.30;4.57;;;6.20;99.90;;;;;;5046527;28;20200;-77
2022/01/29 02:49:21;;;;;;;7.17;3.93;;;6.20;99.90;;;;;;5030176;28;20177;-77
2022/01/29 02:51:59;;;;;;;8.43;4.40;;;6.10;99.90;;;;;;5028926;28;20192;-76
2022/01/29 02:54:30;;;;;;;5.60;4.20;;;6.00;99.90;;;;;;5011758;28;20599;-80
2022/01/29 02:56:56;;;;;;;6.00;4.00;;;5.70;99.90;;;;;;5029413;28;20561;-81
2022/01/29 02:59:25;;;;;;;7.13;3.57;;;5.80;99.90;;;;;;5029989;28;20174;-77
2022/01/29 03:01:50;;;;;;;4.50;3.00;;;5.90;99.90;;;;;;5029646;28;20174;-80
2022/01/29 03:04:19;;;;;;;5.70;3.00;;;5.90;99.90;;;;;;5029335;28;20236;-80
2022/01/29 03:06:45;;;;;;;6.80;3.57;;;6.00;99.90;;;;;;4996594;28;20182;-76
2022/01/29 03:09:11;;;;;;;4.40;2.83;;;5.90;99.90;;;;;;5029716;28;20255;-77
2022/01/29 03:11:37;;;;;;;4.97;2.70;;;5.80;99.90;;;;;;5031247;28;20181;-77
2022/01/29 03:14:04;;;;;;;4.53;2.80;;;5.90;99.90;;;;;;5018918;28;20178;-78
2022/01/29 03:16:29;;;;;;;3.80;2.80;;;6.10;99.90;;;;;;5016908;28;20673;-76
2022/01/29 03:18:55;;;;;;;5.90;2.63;;;6.00;99.90;;;;;;5035227;28;20253;-76
2022/01/29 03:21:21;;;;;;;5.97;3.37;;;5.90;99.90;;;;;;5049902;28;20198;-78
2022/01/29 03:23:47;;;;;;;4.97;3.27;;;6.00;99.90;;;;;;5034419;28;20607;-75
2022/01/29 03:26:13;;;;;;;5.17;3.00;;;6.00;99.90;;;;;;5033258;28;20198;-79
2022/01/29 03:28:40;;;;;;;5.87;3.03;;;6.00;99.90;;;;;;5049998;28;20664;-76
2022/01/29 03:31:06;;;;;;;5.90;3.20;;;6.10;99.90;;;;;;5035746;28;20992;-80
2022/01/29 03:33:33;;;;;;;4.17;2.70;;;6.10;99.90;;;;;;5016526;28;20185;-78
2022/01/29 03:36:01;;;;;;;5.40;2.73;;;5.70;99.90;;;;;;5033901;28;20251;-76
2022/01/29 03:38:30;;;;;;;6.40;2.93;;;5.40;99.90;;;;;;5032876;28;20178;-80
2022/01/29 03:40:59;;;;;;;4.53;2.50;;;5.40;99.90;;;;;;5050300;28;20249;-79
2022/01/29 03:43:32;;;;;;;6.03;2.93;;;5.30;99.90;;;;;;5032565;28;20255;-76
2022/01/29 03:45:58;;;;;;;4.50;2.73;;;5.40;99.90;;;;;;5032963;28;20599;-77
2022/01/29 03:48:24;;;;;;;3.37;2.53;;;5.60;99.90;;;;;;5034698;28;20174;-79
2022/01/29 03:50:50;;;;;;;5.40;2.40;;;5.80;99.90;;;;;;5049096;28;20166;-78
2022/01/29 03:53:15;;;;;;;3.50;2.30;;;5.90;99.90;;;;;;5029556;28;20178;-77
2022/01/29 03:55:41;;;;;;;6.83;2.20;;;6.00;99.90;;;;;;5032561;28;20178;-79
2022/01/29 03:58:07;;;;;;;5.93;2.50;;;6.00;99.90;;;;;;5049096;28;20232;-75
2022/01/29 04:00:33;;;;;;;4.77;2.40;;;6.00;99.90;;;;;;5034059;28;20202;-80
2022/01/29 04:02:58;;;;;;;3.23;2.07;;;6.10;99.90;;;;;;5048845;28;20190;-77
2022/01/29 04:05:26;;;;;;;4.60;2.10;;;6.10;99.90;;;;;;5048968;28;20182;-77
2022/01/29 04:07:52;;;;;;;4.30;2.27;;;6.10;99.90;;;;;;5032415;28;20290;-77
2022/01/29 04:10:19;;;;;;;3.40;2.10;;;6.00;99.90;;;;;;5015908;28;20185;-77
2022/01/29 04:12:49;;;;;;;5.17;2.27;;;6.00;99.90;;;;;;5049098;28;20175;-76
2022/01/29 04:15:15;;;;;;;4.10;2.33;;;5.90;99.90;;;;;;5049237;28;20208;-80
2022/01/29 04:17:40;;;;;;;4.90;2.27;;;6.00;99.90;;;;;;5016432;28;20597;-76
2022/01/29 04:20:08;;;;;;;5.97;2.20;;;5.80;99.90;;;;;;5033378;28;20181;-79
2022/01/29 04:22:34;;;;;;;5.50;2.00;;;5.80;99.90;;;;;;5048395;28;20585;-76
2022/01/29 04:24:59;;;;;;;4.23;1.77;;;5.80;99.90;;;;;;5033070;28;20232;-76
2022/01/29 04:27:35;;;;;;;4.80;2.13;;;5.90;99.90;;;;;;5033979;28;20908;-76
2022/01/29 04:30:07;;;;;;;2.83;2.10;;;5.80;99.90;;;;;;5016717;28;20188;-75
2022/01/29 04:33:28;;;;;;;3.20;1.77;;;5.90;99.90;;;;;;5048905;28;20170;-77
2022/01/29 04:35:19;;;;;;;4.33;2.30;;;6.00;99.90;;;;;;5024963;28;20197;-77
2022/01/29 04:37:46;;;;;;;3.33;1.70;;;6.00;99.90;;;;;;5048797;28;20177;-76
2022/01/29 04:40:13;;;;;;;3.70;2.03;;;6.00;99.90;;;;;;5048380;28;20174;-79
2022/01/29 04:42:39;;;;;;;6.17;2.13;;;5.90;99.90;;;;;;5015169;28;20178;-77
2022/01/29 04:45:05;;;;;;;3.00;2.17;;;6.00;99.90;;;;;;5031340;28;20687;-77
2022/01/29 04:47:31;;;;;;;2.77;1.53;;;6.10;99.90;;;;;;5015325;28;20732;-77
2022/01/29 04:49:57;;;;;;;3.03;1.77;;;6.10;99.90;;;;;;5015062;28;20240;-76
2022/01/29 04:52:22;;;;;;;3.93;1.90;;;6.10;99.90;;;;;;5025296;28;20219;-77
2022/01/29 04:54:48;;;;;;;2.83;1.83;;;6.20;99.90;;;;;;5014575;28;20583;-77
2022/01/29 04:57:14;;;;;;;1.73;1.60;;;6.20;99.90;;;;;;5014199;28;20728;-80
2022/01/29 04:59:40;;;;;;;2.20;1.67;;;6.10;99.90;;;;;;5031079;28;20193;-77
2022/01/29 05:02:05;;;;;;;3.67;1.93;;;6.20;99.90;;;;;;5030755;28;20961;-80
2022/01/29 05:04:31;;;;;;;2.03;1.60;;;6.20;99.90;;;;;;5015143;28;20228;-76
2022/01/29 05:06:57;;;;;;;4.50;2.27;;;6.20;99.90;;;;;;5031543;28;20170;-79
2022/01/29 05:09:23;;;;;;;5.17;2.50;;;6.20;99.90;;;;;;5031490;28;20605;-79
2022/01/29 05:11:51;;;;;;;3.80;2.60;;;6.20;99.90;;;;;;5032469;28;20182;-79
2022/01/29 05:14:47;;;;;;;4.63;2.70;;;6.00;99.90;;;;;;5047688;28;20178;-77
2022/01/29 05:27:44;;;;;;;7.27;3.97;;;5.70;99.90;;;;;;5031140;28;20257;-79
2022/01/29 05:30:10;;;;;;;7.33;4.23;;;5.80;99.90;;;;;;5030759;28;20262;-76
2022/01/29 05:32:37;;;;;;;5.93;3.90;;;5.90;99.90;;;;;;5030684;28;20185;-79
2022/01/29 05:35:03;;;;;;;10.30;4.73;;;5.70;99.90;;;;;;5046341;28;20700;-79
2022/01/29 05:37:29;;;;;;;6.90;4.43;;;5.80;99.90;;;;;;5030760;28;20186;-75
2022/01/29 05:39:55;;;;;;;7.03;4.97;;;5.90;99.90;;;;;;5047565;28;20188;-79
2022/01/29 05:42:20;;;;;;;8.67;4.80;;;5.90;99.90;;;;;;5032170;28;20182;-79
2022/01/29 05:44:46;;;;;;;8.30;4.53;;;6.00;99.90;;;;;;5030147;28;20213;-79
2022/01/29 05:47:12;;;;;;;7.57;5.07;;;5.80;99.90;;;;;;5047183;28;20266;-79
2022/01/29 05:49:38;;;;;;;7.53;4.90;;;5.70;99.90;;;;;;5046985;28;20243;-75
2022/01/29 05:52:04;;;;;;;8.17;5.00;;;5.70;99.90;;;;;;5013755;28;20174;-76
2022/01/29 05:54:29;;;;;;;7.17;4.90;;;5.70;99.90;;;;;;5031819;28;20186;-77
2022/01/29 05:56:56;;;;;;;9.50;5.40;;;5.60;99.90;;;;;;5046979;28;20186;-80
2022/01/29 05:59:22;;;;;;;11.77;6.47;;;5.70;99.90;;;;;;5030822;28;20186;-80
2022/01/29 06:01:48;;;;;;;7.93;5.87;;;5.80;99.90;;;;;;5046987;28;20648;-80
2022/01/29 06:04:15;;;;;;;10.70;6.10;;;5.80;99.90;;;;;;5030337;28;20213;-80
2022/01/29 06:06:41;;;;;;;10.50;6.30;;;5.80;99.90;;;;;;5013535;28;20174;-76
2022/01/29 06:09:06;;;;;;;9.80;5.93;;;5.90;99.90;;;;;;5013716;28;20181;-80
2022/01/29 06:11:32;;;;;;;8.57;5.63;;;5.80;99.90;;;;;;5029911;28;20645;-77
2022/01/29 06:13:59;;;;;;;8.83;5.50;;;5.80;99.90;;;;;;5030144;28;20257;-77
2022/01/29 06:16:25;;;;;;;10.27;6.10;;;5.80;99.90;;;;;;5031248;28;20193;-78
2022/01/29 06:18:51;;;;;;;19.00;6.93;;;5.80;99.90;;;;;;5013649;28;20190;-80
2022/01/29 06:21:17;;;;;;;9.80;6.40;;;5.80;99.90;;;;;;5029967;28;20649;-79
2022/01/29 06:23:43;;;;;;;10.43;6.57;;;5.90;99.90;;;;;;5013588;28;20292;-75
2022/01/29 06:26:13;;;;;;;9.50;6.03;;;5.70;99.90;;;;;;5029884;28;20177;-78
2022/01/29 06:28:40;;;;;;;10.43;6.60;;;5.80;99.90;;;;;;5031277;28;20228;-79
2022/01/29 06:31:06;;;;;;;12.37;6.57;;;5.80;99.90;;;;;;5030725;28;20169;-77
2022/01/29 06:33:32;;;;;;;11.43;5.97;;;5.90;99.90;;;;;;5030715;28;20174;-79
2022/01/29 06:35:58;;;;;;;9.50;6.37;;;5.80;99.90;;;;;;5029238;28;20240;-79
2022/01/29 06:38:24;;;;;;;8.03;6.00;;;5.80;99.90;;;;;;5030976;28;20173;-76
2022/01/29 06:40:51;;;;;;;10.40;6.23;;;5.80;99.90;;;;;;5029617;28;20190;-79
2022/01/29 06:43:17;;;;;;;8.97;6.07;;;5.80;99.90;;;;;;5013057;28;20269;-77
2022/01/29 06:45:44;;;;;;;15.83;7.23;;;5.90;99.90;;;;;;5028803;28;20514;-77
2022/01/29 06:48:11;;;;;;;13.20;6.27;;;6.00;99.90;;;;;;5029587;28;20571;-76
2022/01/29 06:50:39;;;;;;;11.00;6.17;;;5.90;99.90;;;;;;5029512;28;20257;-77
2022/01/29 06:53:05;;;;;;;9.57;6.20;;;6.00;99.90;;;;;;5022701;28;20212;-78
2022/01/29 06:55:32;;;;;;;11.40;7.07;;;5.90;99.90;;;;;;5010650;28;20267;-79
2022/01/29 06:57:58;;;;;;;10.93;6.00;;;5.90;99.90;;;;;;5011039;28;20163;-76
2022/01/29 07:00:24;;;;;;;10.30;6.87;;;5.80;99.90;;;;;;5013596;28;20170;-76
2022/01/29 07:02:49;;;;;;;12.97;6.40;;;5.80;99.90;;;;;;5045935;28;20232;-78
2022/01/29 07:05:15;;;;;;;9.87;6.17;;;5.80;99.90;;;;;;5029405;28;20220;-76
2022/01/29 07:07:41;;;;;;;11.33;6.60;;;5.70;99.90;;;;;;5029828;28;20170;-80
2022/01/29 07:10:08;;;;;;;10.13;6.43;;;5.70;99.90;;;;;;5048467;28;20178;-79
2022/01/29 07:12:39;;;;;;;9.00;5.90;;;5.80;99.90;;;;;;5013673;28;20185;-76
2022/01/29 07:15:09;;;;;;;8.13;5.20;;;5.90;99.90;;;;;;5021872;28;20216;-77
2022/01/29 07:17:36;;;;;;;7.27;5.47;;;5.90;99.90;;;;;;5009799;28;20186;-80
2022/01/29 07:20:03;;;;;;;9.83;5.73;;;5.80;99.90;;;;;;5022182;28;20236;-78
2022/01/29 07:22:28;;;;;;;8.13;5.30;;;5.80;99.90;;;;;;5025534;28;20185;-78
2022/01/29 07:24:54;;;;;;;11.30;5.17;;;6.00;99.90;;;;;;5031335;28;20668;-78
2022/01/29 07:27:20;;;;;;;8.80;5.03;;;5.90;99.90;;;;;;5021379;28;20541;-77
2022/01/29 07:29:46;;;;;;;9.40;4.90;;;5.90;99.90;;;;;;5025104;28;20698;-76
2022/01/29 07:32:12;;;;;;;7.40;4.37;;;5.90;99.90;;;;;;5024666;28;20198;-77
2022/01/29 07:34:38;;;;;;;6.07;4.30;;;5.70;99.90;;;;;;5008500;28;20196;-79
2022/01/29 07:37:04;;;;;;;8.23;4.00;;;5.90;99.90;;;;;;5025848;28;20181;-76
2022/01/29 07:39:30;;;;;;;4.80;3.33;;;5.80;99.90;;;;;;5023506;28;20261;-79
2022/01/29 07:41:57;;;;;;;5.57;3.33;;;5.80;99.90;;;;;;5010675;28;20287;-80
2022/01/29 07:44:23;;;;;;;5.93;3.77;;;5.90;99.90;;;;;;5029056;28;20206;-79
2022/01/29 07:46:49;;;;;;;8.87;3.47;;;6.00;99.90;;;;;;5026741;28;20494;-76
2022/01/29 07:49:15;;;;;;;10.13;3.40;;;6.00;99.90;;;;;;5008368;28;20178;-76
2022/01/29 07:51:41;;;;;;;8.63;2.73;;;6.00;99.90;;;;;;5025937;28;20171;-75
2022/01/29 07:54:08;;;;;;;4.23;2.87;;;6.00;99.90;;;;;;5024447;28;20281;-76
2022/01/29 07:56:34;;;;;;;4.67;2.90;;;6.00;99.90;;;;;;5027521;28;20236;-76
2022/01/29 07:59:11;;;;;;;4.87;2.60;;;6.10;99.90;;;;;;5019721;28;20202;-80
2022/01/29 08:01:37;;;;;;;4.57;3.17;;;6.10;99.90;;;;;;5028366;28;20173;-80
2022/01/29 08:04:03;;;;;;;3.50;2.10;;;6.20;99.90;;;;;;5011510;28;20275;-78
2022/01/29 08:06:29;;;;;;;4.83;2.00;;;6.30;99.90;;;;;;5012488;28;20178;-75
2022/01/29 08:08:56;;;;;;;2.13;1.73;;;6.10;99.90;;;;;;5031638;28;20201;-80
2022/01/29 08:11:25;;;;;;;2.33;1.97;;;6.20;99.90;;;;;;5033368;28;20197;-80
2022/01/29 08:13:52;;;;;;;4.10;1.90;;;6.10;99.90;;;;;;4999760;28;20189;-80
2022/01/29 08:16:18;;;;;;;2.63;1.80;;;6.10;99.90;;;;;;5031173;28;20314;-78
2022/01/29 08:18:47;;;;;;;2.80;1.60;;;6.20;99.90;;;;;;5007258;28;20650;-76
2022/01/29 08:21:16;;;;;;;4.07;2.20;;;6.30;99.90;;;;;;5033790;28;20255;-78
2022/01/29 08:23:42;;;;;;;5.03;1.93;;;6.40;99.90;;;;;;5032573;28;20201;-76
2022/01/29 08:26:09;;;;;;;2.57;1.70;;;6.30;99.90;;;;;;5029828;28;20184;-78
2022/01/29 08:28:34;;;;;;;4.03;1.90;;;6.40;99.90;;;;;;5032833;28;20178;-78
2022/01/29 08:31:00;;;;;;;2.70;1.60;;;6.50;99.90;;;;;;5034077;28;20178;-73
2022/01/29 08:33:26;;;;;;;3.27;1.57;;;6.50;99.90;;;;;;5033502;28;20487;-77
2022/01/29 08:35:53;;;;;;;2.93;1.70;;;6.40;99.90;;;;;;5032139;28;20525;-74
2022/01/29 08:38:21;;;;;;;4.17;2.00;;;6.20;99.90;;;;;;5030416;28;20190;-76
2022/01/29 08:40:47;;;;;;;4.03;2.00;;;6.30;99.90;;;;;;5031865;28;20918;-76
2022/01/29 08:43:13;;;;;;;3.17;1.77;;;6.50;99.90;;;;;;5032942;28;20174;-82
2022/01/29 08:45:38;;;;;;;2.67;1.73;;;6.40;99.90;;;;;;5029529;28;20256;-80
2022/01/29 08:48:06;;;;;;;4.13;1.97;;;6.50;99.90;;;;;;5031763;28;20244;-74
2022/01/29 08:50:32;;;;;;;4.57;2.30;;;6.70;99.90;;;;;;5016071;28;20264;-77
2022/01/29 08:52:58;;;;;;;2.97;1.67;;;6.90;99.90;;;;;;5023341;28;20278;-82
2022/01/29 08:55:24;;;;;;;3.87;2.17;;;6.80;99.90;;;;;;5012075;28;20641;-76
2022/01/29 08:57:50;;;;;;;4.93;2.10;;;7.00;99.90;;;;;;5012715;28;20190;-81
2022/01/29 09:00:17;;;;;;;3.73;1.90;;;6.80;99.90;;;;;;5013505;28;20735;-81
2022/01/29 09:02:43;;;;;;;4.23;2.03;;;6.70;99.90;;;;;;5021642;28;20199;-75
2022/01/29 09:05:11;;;;;;;3.57;2.00;;;6.80;99.90;;;;;;5029931;28;20255;-75
2022/01/29 09:07:37;;;;;;;2.97;2.00;;;6.80;99.90;;;;;;5031277;28;20178;-77
2022/01/29 09:10:03;;;;;;;3.33;1.80;;;6.80;99.90;;;;;;5025154;28;20185;-80
2022/01/29 09:12:30;;;;;;;2.97;1.70;;;6.90;99.90;;;;;;5011544;28;20179;-75
2022/01/29 09:14:56;;;;;;;2.73;2.00;;;6.90;99.90;;;;;;5031357;28;20292;-76
2022/01/29 09:17:22;;;;;;;3.63;2.43;;;7.10;99.90;;;;;;5029506;28;20304;-81
2022/01/29 09:19:48;;;;;;;4.27;2.30;;;7.30;99.90;;;;;;5011874;28;20178;-82
2022/01/29 09:22:13;;;;;;;4.83;2.20;;;7.20;99.90;;;;;;5029602;28;20182;-76
2022/01/29 09:24:39;;;;;;;5.80;3.43;;;7.20;99.90;;;;;;5033591;28;20213;-80
2022/01/29 09:27:05;;;;;;;3.30;2.23;;;7.10;99.90;;;;;;5013036;28;20185;-81
2022/01/29 09:29:32;;;;;;;3.20;1.83;;;7.10;99.90;;;;;;5014303;28;20177;-80
2022/01/29 09:31:58;;;;;;;4.60;2.40;;;7.00;99.90;;;;;;5027864;28;20178;-76
2022/01/29 09:34:23;;;;;;;2.80;2.17;;;7.10;99.90;;;;;;5030460;28;20232;-76
2022/01/29 09:36:49;;;;;;;3.30;2.33;;;7.20;99.90;;;;;;5013984;28;20675;-81
2022/01/29 09:39:15;;;;;;;3.33;2.47;;;7.30;99.90;;;;;;4997906;28;20182;-84
2022/01/29 09:41:44;;;;;;;3.97;2.10;;;7.30;99.90;;;;;;5030584;28;20190;-81
2022/01/29 09:44:11;;;;;;;2.90;2.07;;;7.50;99.90;;;;;;5015144;28;20217;-79
2022/01/29 09:46:40;;;;;;;3.30;2.20;;;7.80;99.90;;;;;;4997435;28;20618;-76
2022/01/29 09:49:06;;;;;;;3.40;2.57;;;7.80;99.90;;;;;;5035207;28;20173;-81
2022/01/29 09:51:33;;;;;;;4.10;2.43;;;7.80;99.90;;;;;;5031345;28;20181;-80
2022/01/29 09:53:58;;;;;;;3.10;2.23;;;7.80;99.90;;;;;;5030041;28;20307;-81
2022/01/29 09:56:25;;;;;;;3.53;2.43;;;7.60;99.90;;;;;;5044501;28;20272;-76
2022/01/29 09:58:51;;;;;;;3.70;2.20;;;7.80;99.90;;;;;;5012274;28;20272;-75
2022/01/29 10:01:17;;;;;;;4.23;2.40;;;8.00;99.90;;;;;;5024258;28;20197;-75
2022/01/29 10:04:04;;;;;;;4.93;2.47;;;8.10;99.90;;;;;;4969265;28;20217;-77
2022/01/29 10:06:32;;;;;;;3.30;2.37;;;8.00;99.90;;;;;;5031363;28;20229;-80
2022/01/29 10:09:11;;;;;;;6.07;2.70;;;8.20;99.90;;;;;;5013602;28;20201;-78
2022/01/29 10:11:40;;;;;;;6.43;2.60;;;8.50;99.90;;;;;;5035083;28;20179;-76
2022/01/29 10:14:06;;;;;;;4.07;2.17;;;8.50;99.90;;;;;;5035198;28;20212;-84
2022/01/29 10:16:40;;;;;;;2.67;2.07;;;8.50;99.90;;;;;;5026825;28;20263;-80
2022/01/29 10:19:13;;;;;;;3.43;2.50;;;8.40;99.90;;;;;;5029623;28;20189;-80
2022/01/29 10:21:41;;;;;;;3.03;1.90;;;8.10;99.90;;;;;;5028323;28;20178;-79
2022/01/29 10:24:17;;;;;;;3.07;2.00;;;8.20;99.90;;;;;;5014083;28;20202;-79
2022/01/29 10:26:49;;;;;;;3.50;1.90;;;8.30;99.90;;;;;;5026326;28;20207;-81
2022/01/29 10:29:26;;;;;;;3.60;2.40;;;8.40;99.90;;;;;;5029002;28;20857;-80
2022/01/29 10:31:55;;;;;;;5.53;2.53;;;8.40;99.90;;;;;;5019204;28;20217;-80
2022/01/29 10:34:29;;;;;;;2.27;2.00;;;8.40;99.90;;;;;;5030363;28;20671;-79
2022/01/29 10:37:18;;;;;;;3.23;2.37;;;8.50;99.90;;;;;;5029508;28;20185;-79
2022/01/29 10:39:49;;;;;;;2.57;1.97;;;8.70;99.90;;;;;;5028796;28;20288;-80
2022/01/29 10:42:23;;;;;;;3.33;1.97;;;8.70;99.90;;;;;;5030837;28;20243;-81
2022/01/29 10:44:53;;;;;;;2.97;2.07;;;8.60;99.90;;;;;;5013174;28;20208;-81
2022/01/29 10:47:19;;;;;;;4.17;2.60;;;8.60;99.90;;;;;;5030184;28;20200;-81
2022/01/29 10:50:02;;;;;;;6.33;2.57;;;8.50;99.90;;;;;;5030946;28;20266;-83
2022/01/29 10:52:30;;;;;;;3.10;2.40;;;8.70;99.90;;;;;;4997836;28;20188;-83
2022/01/29 10:55:06;;;;;;;3.93;2.50;;;8.80;99.90;;;;;;5028220;28;20249;-83
2022/01/29 10:57:38;;;;;;;3.53;2.20;;;8.70;99.90;;;;;;5022025;28;20181;-83
2022/01/29 11:00:20;;;;;;;5.43;2.67;;;8.70;99.90;;;;;;4997467;28;20193;-82
2022/01/29 11:02:46;;;;;;;2.30;1.77;;;8.80;99.90;;;;;;5027160;28;20195;-83
2022/01/29 11:05:13;;;;;;;2.50;1.80;;;8.60;99.90;;;;;;5009752;28;20209;-83
2022/01/29 11:07:41;;;;;;;2.60;1.50;;;8.60;99.90;;;;;;5030641;28;20654;-80
2022/01/29 11:10:08;;;;;;;3.20;1.73;;;8.50;99.90;;;;;;5029189;28;20261;-83
2022/01/29 11:12:38;;;;;;;2.10;1.67;;;8.40;99.90;;;;;;5029085;28;20212;-84
2022/01/29 11:15:05;;;;;;;5.87;1.73;;;8.50;99.90;;;;;;5003400;28;20213;-76
2022/01/29 11:17:32;;;;;;;2.70;1.40;;;8.70;99.90;;;;;;4997132;28;20243;-78
2022/01/29 11:19:59;;;;;;;2.67;1.87;;;8.70;99.90;;;;;;5045405;28;20196;-77
2022/01/29 11:22:38;;;;;;;3.17;1.70;;;8.60;99.90;;;;;;5037665;28;20173;-81
2022/01/29 11:25:19;;;;;;;2.17;1.47;;;8.70;99.90;;;;;;5048444;28;20209;-78
2022/01/29 11:27:44;;;;;;;2.53;1.60;;;8.70;99.90;;;;;;5048486;28;20199;-77
2022/01/29 11:30:14;;;;;;;2.20;1.57;;;9.00;99.90;;;;;;5044203;28;20217;-76
2022/01/29 11:32:42;;;;;;;3.33;1.90;;;9.00;99.90;;;;;;5013050;28;20186;-79
2022/01/29 11:35:25;;;;;;;2.17;1.50;;;8.90;99.90;;;;;;5032155;28;20593;-75
2022/01/29 11:38:03;;;;;;;3.87;1.80;;;8.80;99.90;;;;;;5015650;28;20244;-75
2022/01/29 11:40:35;;;;;;;1.50;1.20;;;8.80;99.90;;;;;;5023710;28;20270;-75
2022/01/29 11:43:04;;;;;;;2.90;1.63;;;8.80;99.90;;;;;;5021257;28;20197;-75
2022/01/29 11:45:42;;;;;;;2.67;1.70;;;8.90;99.90;;;;;;5030293;28;20202;-75
2022/01/29 11:48:32;;;;;;;3.87;1.57;;;8.90;99.90;;;;;;5031011;28;20178;-74
2022/01/29 11:51:06;;;;;;;3.67;1.13;;;8.90;99.90;;;;;;5040551;28;20610;-75
2022/01/29 11:53:54;;;;;;;5.83;1.50;;;8.60;99.90;;;;;;5023125;28;20190;-75
2022/01/29 11:56:33;;;;;;;2.07;1.27;;;8.70;99.90;;;;;;5030166;28;20240;-75
2022/01/29 11:59:20;;;;;;;2.37;1.50;;;8.80;99.90;;;;;;5039310;28;20188;-75
2022/01/29 12:01:52;;;;;;;3.07;1.10;;;8.70;99.90;;;;;;5029584;28;20182;-79
2022/01/29 12:05:07;;;;;;;1.77;1.20;;;8.60;99.90;;;;;;5024884;28;20263;-80
2022/01/29 12:07:37;;;;;;;2.33;1.23;;;8.70;99.90;;;;;;5026716;28;20181;-80
2022/01/29 12:10:14;;;;;;;2.60;1.40;;;8.50;99.90;;;;;;5037827;28;20521;-76
2022/01/29 12:12:44;;;;;;;1.67;1.40;;;8.50;99.90;;;;;;5032928;28;20193;-78
2022/01/29 12:15:10;;;;;;;1.27;0.93;;;8.40;99.90;;;;;;5049957;28;20212;-79
2022/01/29 12:17:51;;;;;;;3.70;1.77;;;8.60;99.90;;;;;;5024097;28;20182;-77
2022/01/29 12:20:20;;;;;;;1.60;1.20;;;8.60;99.90;;;;;;5029776;28;20182;-78
2022/01/29 12:22:47;;;;;;;2.00;1.37;;;8.60;99.90;;;;;;5015401;28;20186;-76
2022/01/29 12:25:16;;;;;;;3.23;1.80;;;8.50;99.90;;;;;;5036998;28;20989;-80
2022/01/29 12:27:53;;;;;;;4.03;1.63;;;8.60;99.90;;;;;;5038838;28;20562;-77
2022/01/29 12:30:27;;;;;;;5.67;2.07;;;8.60;99.90;;;;;;5033315;28;20188;-77
2022/01/29 12:33:16;;;;;;;2.57;1.57;;;8.70;99.90;;;;;;5024820;28;20587;-79
2022/01/29 12:35:49;;;;;;;3.60;1.43;;;8.70;99.90;;;;;;5011856;28;20784;-78
2022/01/29 12:38:42;;;;;;;1.60;1.40;;;8.70;99.90;;;;;;5029944;28;20189;-79
2022/01/29 12:41:27;;;;;;;5.93;1.27;;;8.60;99.90;;;;;;5031025;28;20248;-78
2022/01/29 12:43:54;;;;;;;3.83;1.37;;;8.70;99.90;;;;;;5030858;28;20205;-78
2022/01/29 12:46:25;;;;;;;2.77;0.93;;;8.60;99.90;;;;;;5033847;28;20182;-78
2022/01/29 12:49:10;;;;;;;3.67;1.37;;;8.80;99.90;;;;;;5026608;28;20187;-80
2022/01/29 12:51:49;;;;;;;3.03;1.30;;;8.70;99.90;;;;;;5029391;28;20189;-79
2022/01/29 12:54:15;;;;;;;1.27;1.13;;;8.70;99.90;;;;;;4998524;28;20626;-78
2022/01/29 12:56:41;;;;;;;1.83;1.20;;;9.00;99.90;;;;;;5005407;28;20196;-79
2022/01/29 12:59:12;;;;;;;1.40;1.00;;;8.70;99.90;;;;;;5013107;28;20221;-78
2022/01/29 13:01:41;;;;;;;2.13;1.30;;;8.80;99.90;;;;;;4994387;28;20191;-78
2022/01/29 13:04:13;;;;;;;2.73;1.57;;;8.70;99.90;;;;;;5030632;28;20279;-79
2022/01/29 13:06:40;;;;;;;1.37;1.03;;;8.60;99.90;;;;;;5031778;28;20182;-78
2022/01/29 13:09:14;;;;;;;1.80;1.30;;;8.50;99.90;;;;;;5018897;28;20231;-79
2022/01/29 13:11:41;;;;;;;1.47;1.20;;;8.60;99.90;;;;;;5025381;28;20180;-77
2022/01/29 13:14:19;;;;;;;2.10;1.10;;;8.50;99.90;;;;;;5031576;28;20185;-78